sensor_id;sensor_type;location;lat;lon;timestamp;temperature;humidity
39095;DHT22;24840;47.508;19.376;2022-09-09T00:04:30;19.30;99.90
39095;DHT22;24840;47.508;19.376;2022-09-09T00:12:47;19.10;99.90
39095;DHT22;24840;47.508;19.376;2022-09-09T00:21:16;18.90;99.90
39095;DHT22;24840;47.508;19.376;2022-09-09T00:23:53;18.90;99.90
39095;DHT22;24840;47.508;19.376;2022-09-09T00:29:20;18.80;99.90
39095;DHT22;24840;47.508;19.376;2022-09-09T00:31:48;18.80;99.90
39095;DHT22;24840;47.508;19.376;2022-09-09T00:34:19;18.70;99.90
39095;DHT22;24840;47.508;19.376;2022-09-09T00:36:50;18.70;99.90
39095;DHT22;24840;47.508;19.376;2022-09-09T00:39:41;18.70;99.90
39095;DHT22;24840;47.508;19.376;2022-09-09T00:42:18;18.60;99.90
39095;DHT22;24840;47.508;19.376;2022-09-09T00:47:48;18.60;99.90
39095;DHT22;24840;47.508;19.376;2022-09-09T00:53:56;18.50;99.90
39095;DHT22;24840;47.508;19.376;2022-09-09T00:56:22;18.30;99.90
39095;DHT22;24840;47.508;19.376;2022-09-09T00:59:12;18.30;99.90
39095;DHT22;24840;47.508;19.376;2022-09-09T01:01:40;18.20;99.90
39095;DHT22;24840;47.508;19.376;2022-09-09T01:04:18;18.10;99.90
39095;DHT22;24840;47.508;19.376;2022-09-09T01:06:53;17.90;99.90
39095;DHT22;24840;47.508;19.376;2022-09-09T01:09:57;18.00;99.90
39095;DHT22;24840;47.508;19.376;2022-09-09T01:12:28;17.90;99.90
39095;DHT22;24840;47.508;19.376;2022-09-09T01:15:07;18.10;99.90
39095;DHT22;24840;47.508;19.376;2022-09-09T01:18:06;18.10;99.90
39095;DHT22;24840;47.508;19.376;2022-09-09T01:20:49;18.10;99.90
39095;DHT22;24840;47.508;19.376;2022-09-09T01:23:37;18.10;99.90
39095;DHT22;24840;47.508;19.376;2022-09-09T01:26:37;18.10;99.90
39095;DHT22;24840;47.508;19.376;2022-09-09T01:29:12;17.90;99.90
39095;DHT22;24840;47.508;19.376;2022-09-09T01:31:40;17.90;99.90
39095;DHT22;24840;47.508;19.376;2022-09-09T01:34:16;17.90;99.90
39095;DHT22;24840;47.508;19.376;2022-09-09T01:39:41;17.80;99.90
39095;DHT22;24840;47.508;19.376;2022-09-09T01:42:11;17.70;99.90
39095;DHT22;24840;47.508;19.376;2022-09-09T01:44:38;17.70;99.90
39095;DHT22;24840;47.508;19.376;2022-09-09T01:47:07;17.80;99.90
39095;DHT22;24840;47.508;19.376;2022-09-09T01:49:33;17.70;99.90
39095;DHT22;24840;47.508;19.376;2022-09-09T01:51:59;17.60;99.90
39095;DHT22;24840;47.508;19.376;2022-09-09T01:54:28;17.50;99.90
39095;DHT22;24840;47.508;19.376;2022-09-09T01:57:24;17.50;99.90
39095;DHT22;24840;47.508;19.376;2022-09-09T01:59:59;17.40;99.90
39095;DHT22;24840;47.508;19.376;2022-09-09T02:02:48;17.40;99.90
39095;DHT22;24840;47.508;19.376;2022-09-09T02:05:30;17.40;99.90
39095;DHT22;24840;47.508;19.376;2022-09-09T02:08:10;17.30;99.90
39095;DHT22;24840;47.508;19.376;2022-09-09T02:13:20;17.30;99.90
39095;DHT22;24840;47.508;19.376;2022-09-09T02:16:18;17.20;99.90
39095;DHT22;24840;47.508;19.376;2022-09-09T02:19:13;17.20;99.90
39095;DHT22;24840;47.508;19.376;2022-09-09T02:21:43;17.10;99.90
39095;DHT22;24840;47.508;19.376;2022-09-09T02:24:12;17.20;99.90
39095;DHT22;24840;47.508;19.376;2022-09-09T02:26:42;17.10;99.90
39095;DHT22;24840;47.508;19.376;2022-09-09T02:29:21;17.10;99.90
39095;DHT22;24840;47.508;19.376;2022-09-09T02:31:49;17.10;99.90
39095;DHT22;24840;47.508;19.376;2022-09-09T02:34:18;17.10;99.90
39095;DHT22;24840;47.508;19.376;2022-09-09T02:36:47;17.00;99.90
39095;DHT22;24840;47.508;19.376;2022-09-09T02:39:13;17.00;99.90
39095;DHT22;24840;47.508;19.376;2022-09-09T02:41:41;17.00;99.90
39095;DHT22;24840;47.508;19.376;2022-09-09T02:44:25;17.00;99.90
39095;DHT22;24840;47.508;19.376;2022-09-09T02:57:58;16.90;99.90
39095;DHT22;24840;47.508;19.376;2022-09-09T03:00:28;16.90;99.90
39095;DHT22;24840;47.508;19.376;2022-09-09T03:02:54;16.80;99.90
39095;DHT22;24840;47.508;19.376;2022-09-09T03:05:21;16.80;99.90
39095;DHT22;24840;47.508;19.376;2022-09-09T03:07:47;16.80;99.90
39095;DHT22;24840;47.508;19.376;2022-09-09T03:10:13;16.70;99.90
39095;DHT22;24840;47.508;19.376;2022-09-09T03:12:39;16.70;99.90
39095;DHT22;24840;47.508;19.376;2022-09-09T03:15:06;16.80;99.90
39095;DHT22;24840;47.508;19.376;2022-09-09T03:17:33;16.70;99.90
39095;DHT22;24840;47.508;19.376;2022-09-09T03:20:00;16.70;99.90
39095;DHT22;24840;47.508;19.376;2022-09-09T03:22:27;16.70;99.90
39095;DHT22;24840;47.508;19.376;2022-09-09T03:24:53;16.70;99.90
39095;DHT22;24840;47.508;19.376;2022-09-09T03:27:21;16.70;99.90
39095;DHT22;24840;47.508;19.376;2022-09-09T03:29:47;16.70;99.90
39095;DHT22;24840;47.508;19.376;2022-09-09T03:32:17;16.70;99.90
39095;DHT22;24840;47.508;19.376;2022-09-09T03:34:44;16.70;99.90
39095;DHT22;24840;47.508;19.376;2022-09-09T03:37:14;16.60;99.90
39095;DHT22;24840;47.508;19.376;2022-09-09T03:39:40;16.60;99.90
39095;DHT22;24840;47.508;19.376;2022-09-09T03:42:06;16.50;99.90
39095;DHT22;24840;47.508;19.376;2022-09-09T03:44:32;16.50;99.90
39095;DHT22;24840;47.508;19.376;2022-09-09T03:47:07;16.60;99.90
39095;DHT22;24840;47.508;19.376;2022-09-09T03:49:33;16.60;99.90
39095;DHT22;24840;47.508;19.376;2022-09-09T03:51:59;16.50;99.90
39095;DHT22;24840;47.508;19.376;2022-09-09T03:54:26;16.40;99.90
39095;DHT22;24840;47.508;19.376;2022-09-09T03:56:53;16.30;99.90
39095;DHT22;24840;47.508;19.376;2022-09-09T03:59:19;16.30;99.90
39095;DHT22;24840;47.508;19.376;2022-09-09T04:01:46;16.30;99.90
39095;DHT22;24840;47.508;19.376;2022-09-09T04:04:12;16.20;99.90
39095;DHT22;24840;47.508;19.376;2022-09-09T04:06:43;16.40;99.90
39095;DHT22;24840;47.508;19.376;2022-09-09T04:09:08;16.40;99.90
39095;DHT22;24840;47.508;19.376;2022-09-09T04:11:34;16.30;99.90
39095;DHT22;24840;47.508;19.376;2022-09-09T04:14:00;16.30;99.90
39095;DHT22;24840;47.508;19.376;2022-09-09T04:23:04;16.10;99.90
39095;DHT22;24840;47.508;19.376;2022-09-09T04:32:14;15.90;99.90
39095;DHT22;24840;47.508;19.376;2022-09-09T04:34:46;15.80;99.90
39095;DHT22;24840;47.508;19.376;2022-09-09T04:40:18;16.00;99.90
39095;DHT22;24840;47.508;19.376;2022-09-09T04:42:44;16.00;99.90
39095;DHT22;24840;47.508;19.376;2022-09-09T04:45:10;16.10;99.90
39095;DHT22;24840;47.508;19.376;2022-09-09T04:51:01;16.00;99.90
39095;DHT22;24840;47.508;19.376;2022-09-09T04:57:10;16.00;99.90
39095;DHT22;24840;47.508;19.376;2022-09-09T04:59:36;16.10;99.90
39095;DHT22;24840;47.508;19.376;2022-09-09T05:02:03;16.10;99.90
39095;DHT22;24840;47.508;19.376;2022-09-09T05:04:29;16.10;99.90
39095;DHT22;24840;47.508;19.376;2022-09-09T05:10:17;16.20;99.90
39095;DHT22;24840;47.508;19.376;2022-09-09T05:12:52;16.20;99.90
39095;DHT22;24840;47.508;19.376;2022-09-09T05:22:03;16.40;99.90
39095;DHT22;24840;47.508;19.376;2022-09-09T05:24:29;16.30;99.90
39095;DHT22;24840;47.508;19.376;2022-09-09T05:30:21;16.40;99.90
39095;DHT22;24840;47.508;19.376;2022-09-09T05:32:48;16.40;99.90
39095;DHT22;24840;47.508;19.376;2022-09-09T05:35:14;16.40;99.90
39095;DHT22;24840;47.508;19.376;2022-09-09T05:37:40;16.50;99.90
39095;DHT22;24840;47.508;19.376;2022-09-09T05:40:06;16.60;99.90
39095;DHT22;24840;47.508;19.376;2022-09-09T05:42:32;16.60;99.90
39095;DHT22;24840;47.508;19.376;2022-09-09T05:44:58;16.70;99.90
39095;DHT22;24840;47.508;19.376;2022-09-09T05:50:53;16.90;99.90
39095;DHT22;24840;47.508;19.376;2022-09-09T05:53:20;17.10;99.90
39095;DHT22;24840;47.508;19.376;2022-09-09T06:02:25;17.70;99.90
39095;DHT22;24840;47.508;19.376;2022-09-09T06:04:50;17.80;99.90
39095;DHT22;24840;47.508;19.376;2022-09-09T06:10:38;18.30;99.90
39095;DHT22;24840;47.508;19.376;2022-09-09T06:17:11;18.60;99.90
39095;DHT22;24840;47.508;19.376;2022-09-09T06:19:37;18.80;99.90
39095;DHT22;24840;47.508;19.376;2022-09-09T06:22:03;19.00;99.90
39095;DHT22;24840;47.508;19.376;2022-09-09T06:24:29;19.10;99.90
39095;DHT22;24840;47.508;19.376;2022-09-09T06:30:18;19.30;99.90
39095;DHT22;24840;47.508;19.376;2022-09-09T06:32:44;19.20;99.90
39095;DHT22;24840;47.508;19.376;2022-09-09T06:35:10;19.20;99.90
39095;DHT22;24840;47.508;19.376;2022-09-09T06:40:59;19.50;99.90
39095;DHT22;24840;47.508;19.376;2022-09-09T06:43:26;19.60;99.90
39095;DHT22;24840;47.508;19.376;2022-09-09T06:49:48;19.50;99.90
39095;DHT22;24840;47.508;19.376;2022-09-09T06:56:17;19.90;99.90
39095;DHT22;24840;47.508;19.376;2022-09-09T06:58:44;20.70;99.90
39095;DHT22;24840;47.508;19.376;2022-09-09T07:01:19;20.80;99.90
39095;DHT22;24840;47.508;19.376;2022-09-09T07:03:56;20.80;99.90
39095;DHT22;24840;47.508;19.376;2022-09-09T07:10:08;21.20;99.90
39095;DHT22;24840;47.508;19.376;2022-09-09T07:12:41;21.00;99.90
39095;DHT22;24840;47.508;19.376;2022-09-09T07:15:17;21.20;99.90
39095;DHT22;24840;47.508;19.376;2022-09-09T07:17:44;21.60;99.90
39095;DHT22;24840;47.508;19.376;2022-09-09T07:20:10;21.80;99.90
39095;DHT22;24840;47.508;19.376;2022-09-09T07:22:37;22.00;99.90
39095;DHT22;24840;47.508;19.376;2022-09-09T07:25:03;21.80;99.90
39095;DHT22;24840;47.508;19.376;2022-09-09T07:30:59;22.20;99.90
39095;DHT22;24840;47.508;19.376;2022-09-09T07:33:30;21.60;99.90
39095;DHT22;24840;47.508;19.376;2022-09-09T07:39:52;21.10;99.90
39095;DHT22;24840;47.508;19.376;2022-09-09T07:42:18;20.90;99.90
39095;DHT22;24840;47.508;19.376;2022-09-09T07:44:45;21.70;99.90
39095;DHT22;24840;47.508;19.376;2022-09-09T07:50:33;23.10;99.90
39095;DHT22;24840;47.508;19.376;2022-09-09T07:53:01;23.10;99.90
39095;DHT22;24840;47.508;19.376;2022-09-09T08:02:14;24.30;99.90
39095;DHT22;24840;47.508;19.376;2022-09-09T08:04:41;24.60;99.90
39095;DHT22;24840;47.508;19.376;2022-09-09T08:10:32;24.60;99.90
39095;DHT22;24840;47.508;19.376;2022-09-09T08:12:58;24.70;98.60
39095;DHT22;24840;47.508;19.376;2022-09-09T08:21:51;25.20;99.90
39095;DHT22;24840;47.508;19.376;2022-09-09T08:24:17;25.90;98.00
39095;DHT22;24840;47.508;19.376;2022-09-09T08:30:10;25.90;94.60
39095;DHT22;24840;47.508;19.376;2022-09-09T08:32:38;26.00;97.60
39095;DHT22;24840;47.508;19.376;2022-09-09T08:35:05;25.90;94.20
39095;DHT22;24840;47.508;19.376;2022-09-09T08:56:25;27.00;91.70
39095;DHT22;24840;47.508;19.376;2022-09-09T08:58:53;27.30;90.80
39095;DHT22;24840;47.508;19.376;2022-09-09T09:13:13;27.50;81.20
39095;DHT22;24840;47.508;19.376;2022-09-09T09:28:27;29.20;74.70
39095;DHT22;24840;47.508;19.376;2022-09-09T09:31:12;29.50;77.70
39095;DHT22;24840;47.508;19.376;2022-09-09T09:40:15;29.10;77.20
39095;DHT22;24840;47.508;19.376;2022-09-09T09:42:54;30.30;72.70
39095;DHT22;24840;47.508;19.376;2022-09-09T09:45:28;30.30;71.40
39095;DHT22;24840;47.508;19.376;2022-09-09T09:48:05;30.10;69.70
39095;DHT22;24840;47.508;19.376;2022-09-09T09:50:32;30.30;72.00
39095;DHT22;24840;47.508;19.376;2022-09-09T09:53:02;30.70;74.20
39095;DHT22;24840;47.508;19.376;2022-09-09T10:02:26;29.90;66.30
39095;DHT22;24840;47.508;19.376;2022-09-09T10:05:08;29.80;67.70
39095;DHT22;24840;47.508;19.376;2022-09-09T10:11:18;30.60;65.00
39095;DHT22;24840;47.508;19.376;2022-09-09T10:14:21;31.40;65.80
39095;DHT22;24840;47.508;19.376;2022-09-09T10:23:05;31.10;70.20
39095;DHT22;24840;47.508;19.376;2022-09-09T10:39:36;31.70;62.00
39095;DHT22;24840;47.508;19.376;2022-09-09T10:42:12;32.40;59.30
39095;DHT22;24840;47.508;19.376;2022-09-09T10:45:26;32.20;59.00
39095;DHT22;24840;47.508;19.376;2022-09-09T10:53:40;31.60;57.00
39095;DHT22;24840;47.508;19.376;2022-09-09T10:59:50;32.00;58.20
39095;DHT22;24840;47.508;19.376;2022-09-09T11:02:29;31.80;57.70
39095;DHT22;24840;47.508;19.376;2022-09-09T11:05:16;31.70;57.20
39095;DHT22;24840;47.508;19.376;2022-09-09T11:10:45;32.00;57.20
39095;DHT22;24840;47.508;19.376;2022-09-09T11:19:55;32.80;58.00
39095;DHT22;24840;47.508;19.376;2022-09-09T11:22:49;33.20;57.40
39095;DHT22;24840;47.508;19.376;2022-09-09T11:25:25;33.90;53.30
39095;DHT22;24840;47.508;19.376;2022-09-09T11:30:31;32.70;51.30
39095;DHT22;24840;47.508;19.376;2022-09-09T11:33:25;32.80;56.00
39095;DHT22;24840;47.508;19.376;2022-09-09T11:42:22;33.40;49.00
39095;DHT22;24840;47.508;19.376;2022-09-09T11:44:49;32.50;53.80
39095;DHT22;24840;47.508;19.376;2022-09-09T11:50:38;33.10;53.00
39095;DHT22;24840;47.508;19.376;2022-09-09T11:53:18;32.70;54.80
39095;DHT22;24840;47.508;19.376;2022-09-09T12:02:48;33.30;51.60
39095;DHT22;24840;47.508;19.376;2022-09-09T12:05:15;31.80;51.60
39095;DHT22;24840;47.508;19.376;2022-09-09T12:07:52;32.80;56.10
39095;DHT22;24840;47.508;19.376;2022-09-09T12:10:31;32.40;54.60
39095;DHT22;24840;47.508;19.376;2022-09-09T12:13:15;34.00;53.80
39095;DHT22;24840;47.508;19.376;2022-09-09T12:22:37;32.70;52.90
39095;DHT22;24840;47.508;19.376;2022-09-09T12:33:21;31.20;56.00
39095;DHT22;24840;47.508;19.376;2022-09-09T12:42:40;32.40;50.40
39095;DHT22;24840;47.508;19.376;2022-09-09T12:45:19;32.20;52.00
39095;DHT22;24840;47.508;19.376;2022-09-09T12:50:26;33.60;51.90
39095;DHT22;24840;47.508;19.376;2022-09-09T12:52:56;31.30;49.60
39095;DHT22;24840;47.508;19.376;2022-09-09T13:02:19;31.10;54.00
39095;DHT22;24840;47.508;19.376;2022-09-09T13:04:49;31.20;55.20
39095;DHT22;24840;47.508;19.376;2022-09-09T13:10:49;30.40;55.50
39095;DHT22;24840;47.508;19.376;2022-09-09T13:13:22;31.20;58.70
39095;DHT22;24840;47.508;19.376;2022-09-09T13:22:34;33.50;56.00
39095;DHT22;24840;47.508;19.376;2022-09-09T13:30:29;33.10;49.80
39095;DHT22;24840;47.508;19.376;2022-09-09T13:38:25;32.70;52.90
39095;DHT22;24840;47.508;19.376;2022-09-09T13:40:58;33.00;49.50
39095;DHT22;24840;47.508;19.376;2022-09-09T13:43:26;32.50;52.60
39095;DHT22;24840;47.508;19.376;2022-09-09T13:49:00;30.50;50.20
39095;DHT22;24840;47.508;19.376;2022-09-09T13:51:44;29.80;54.90
39095;DHT22;24840;47.508;19.376;2022-09-09T13:54:14;29.30;58.90
39095;DHT22;24840;47.508;19.376;2022-09-09T13:56:43;29.20;59.00
39095;DHT22;24840;47.508;19.376;2022-09-09T13:59:15;28.90;61.20
39095;DHT22;24840;47.508;19.376;2022-09-09T14:01:48;28.80;60.20
39095;DHT22;24840;47.508;19.376;2022-09-09T14:04:18;29.10;64.60
39095;DHT22;24840;47.508;19.376;2022-09-09T14:09:51;28.90;58.30
39095;DHT22;24840;47.508;19.376;2022-09-09T14:12:18;29.10;56.90
39095;DHT22;24840;47.508;19.376;2022-09-09T14:14:44;29.40;60.50
39095;DHT22;24840;47.508;19.376;2022-09-09T14:17:13;29.30;55.20
39095;DHT22;24840;47.508;19.376;2022-09-09T14:19:40;30.90;57.30
39095;DHT22;24840;47.508;19.376;2022-09-09T14:22:06;31.50;49.90
39095;DHT22;24840;47.508;19.376;2022-09-09T14:24:32;30.30;49.00
39095;DHT22;24840;47.508;19.376;2022-09-09T14:26:58;29.30;53.80
39095;DHT22;24840;47.508;19.376;2022-09-09T14:29:24;28.60;56.60
39095;DHT22;24840;47.508;19.376;2022-09-09T14:31:52;28.50;58.60
39095;DHT22;24840;47.508;19.376;2022-09-09T14:34:18;29.10;59.20
39095;DHT22;24840;47.508;19.376;2022-09-09T14:37:19;30.50;57.50
39095;DHT22;24840;47.508;19.376;2022-09-09T14:39:46;29.00;49.20
39095;DHT22;24840;47.508;19.376;2022-09-09T14:42:13;28.90;51.40
39095;DHT22;24840;47.508;19.376;2022-09-09T14:44:40;28.90;54.70
39095;DHT22;24840;47.508;19.376;2022-09-09T14:47:12;28.90;58.20
39095;DHT22;24840;47.508;19.376;2022-09-09T14:49:38;29.70;60.80
39095;DHT22;24840;47.508;19.376;2022-09-09T14:52:04;29.90;59.10
39095;DHT22;24840;47.508;19.376;2022-09-09T14:54:33;29.30;58.20
39095;DHT22;24840;47.508;19.376;2022-09-09T14:57:00;28.90;60.80
39095;DHT22;24840;47.508;19.376;2022-09-09T14:59:26;28.40;57.00
39095;DHT22;24840;47.508;19.376;2022-09-09T15:01:52;28.50;63.80
39095;DHT22;24840;47.508;19.376;2022-09-09T15:04:18;28.40;66.50
39095;DHT22;24840;47.508;19.376;2022-09-09T15:06:56;28.10;66.70
39095;DHT22;24840;47.508;19.376;2022-09-09T15:09:22;27.70;66.80
39095;DHT22;24840;47.508;19.376;2022-09-09T15:11:48;27.50;68.30
39095;DHT22;24840;47.508;19.376;2022-09-09T15:14:15;27.30;71.80
39095;DHT22;24840;47.508;19.376;2022-09-09T15:16:42;27.40;69.90
39095;DHT22;24840;47.508;19.376;2022-09-09T15:19:08;27.30;68.50
39095;DHT22;24840;47.508;19.376;2022-09-09T15:21:36;27.20;69.50
39095;DHT22;24840;47.508;19.376;2022-09-09T15:24:03;27.20;67.80
39095;DHT22;24840;47.508;19.376;2022-09-09T15:29:55;26.80;73.10
39095;DHT22;24840;47.508;19.376;2022-09-09T15:35:50;26.60;72.80
39095;DHT22;24840;47.508;19.376;2022-09-09T15:38:16;26.50;74.10
39095;DHT22;24840;47.508;19.376;2022-09-09T15:40:43;26.40;76.60
39095;DHT22;24840;47.508;19.376;2022-09-09T15:43:09;26.50;77.40
39095;DHT22;24840;47.508;19.376;2022-09-09T15:52:13;26.20;79.70
39095;DHT22;24840;47.508;19.376;2022-09-09T15:54:39;26.10;80.40
39095;DHT22;24840;47.508;19.376;2022-09-09T16:00:27;25.50;83.10
39095;DHT22;24840;47.508;19.376;2022-09-09T16:02:53;25.20;85.80
39095;DHT22;24840;47.508;19.376;2022-09-09T16:05:19;25.00;87.10
39095;DHT22;24840;47.508;19.376;2022-09-09T16:07:46;24.80;87.30
39095;DHT22;24840;47.508;19.376;2022-09-09T16:10:13;24.60;90.30
39095;DHT22;24840;47.508;19.376;2022-09-09T16:12:39;24.50;91.00
39095;DHT22;24840;47.508;19.376;2022-09-09T16:15:05;24.40;91.40
39095;DHT22;24840;47.508;19.376;2022-09-09T16:17:49;24.30;92.10
39095;DHT22;24840;47.508;19.376;2022-09-09T16:20:15;24.00;93.40
39095;DHT22;24840;47.508;19.376;2022-09-09T16:22:41;24.00;94.40
39095;DHT22;24840;47.508;19.376;2022-09-09T16:25:08;24.00;95.10
39095;DHT22;24840;47.508;19.376;2022-09-09T16:30:56;23.80;95.70
39095;DHT22;24840;47.508;19.376;2022-09-09T16:33:23;23.80;96.20
39095;DHT22;24840;47.508;19.376;2022-09-09T16:36:09;23.50;97.10
39095;DHT22;24840;47.508;19.376;2022-09-09T16:38:36;23.50;97.60
39095;DHT22;24840;47.508;19.376;2022-09-09T16:41:03;23.40;97.00
39095;DHT22;24840;47.508;19.376;2022-09-09T16:43:34;23.50;97.10
39095;DHT22;24840;47.508;19.376;2022-09-09T16:49:54;23.20;98.10
39095;DHT22;24840;47.508;19.376;2022-09-09T16:59:13;22.80;99.60
39095;DHT22;24840;47.508;19.376;2022-09-09T17:01:41;22.60;99.90
39095;DHT22;24840;47.508;19.376;2022-09-09T17:04:13;22.50;99.90
39095;DHT22;24840;47.508;19.376;2022-09-09T17:10:10;22.20;99.90
39095;DHT22;24840;47.508;19.376;2022-09-09T17:12:36;22.10;99.90
39095;DHT22;24840;47.508;19.376;2022-09-09T17:15:02;21.90;99.90
39095;DHT22;24840;47.508;19.376;2022-09-09T17:20:41;21.70;99.90
39095;DHT22;24840;47.508;19.376;2022-09-09T17:23:11;21.60;99.90
39095;DHT22;24840;47.508;19.376;2022-09-09T17:25:42;21.50;99.90
39095;DHT22;24840;47.508;19.376;2022-09-09T17:28:08;21.40;99.90
39095;DHT22;24840;47.508;19.376;2022-09-09T17:30:35;21.30;99.90
39095;DHT22;24840;47.508;19.376;2022-09-09T17:33:03;21.10;99.90
39095;DHT22;24840;47.508;19.376;2022-09-09T17:35:44;21.00;99.90
39095;DHT22;24840;47.508;19.376;2022-09-09T17:41:04;20.90;99.90
39095;DHT22;24840;47.508;19.376;2022-09-09T17:43:30;20.70;99.90
39095;DHT22;24840;47.508;19.376;2022-09-09T17:46:20;20.70;99.90
39095;DHT22;24840;47.508;19.376;2022-09-09T17:48:48;20.60;99.90
39095;DHT22;24840;47.508;19.376;2022-09-09T17:51:20;20.50;99.90
39095;DHT22;24840;47.508;19.376;2022-09-09T17:53:49;20.50;99.90
39095;DHT22;24840;47.508;19.376;2022-09-09T17:56:18;20.30;99.90
39095;DHT22;24840;47.508;19.376;2022-09-09T17:58:46;20.20;99.90
39095;DHT22;24840;47.508;19.376;2022-09-09T18:01:25;20.10;99.90
39095;DHT22;24840;47.508;19.376;2022-09-09T18:03:57;20.00;99.90
39095;DHT22;24840;47.508;19.376;2022-09-09T18:06:30;20.00;99.90
39095;DHT22;24840;47.508;19.376;2022-09-09T18:08:59;19.70;99.90
39095;DHT22;24840;47.508;19.376;2022-09-09T18:11:28;19.70;99.90
39095;DHT22;24840;47.508;19.376;2022-09-09T18:13:58;19.70;99.90
39095;DHT22;24840;47.508;19.376;2022-09-09T18:16:28;19.60;99.90
39095;DHT22;24840;47.508;19.376;2022-09-09T18:18:55;19.60;99.90
39095;DHT22;24840;47.508;19.376;2022-09-09T18:21:23;19.60;99.90
39095;DHT22;24840;47.508;19.376;2022-09-09T18:23:51;19.50;99.90
39095;DHT22;24840;47.508;19.376;2022-09-09T18:26:21;19.40;99.90
39095;DHT22;24840;47.508;19.376;2022-09-09T18:28:55;19.40;99.90
39095;DHT22;24840;47.508;19.376;2022-09-09T18:31:23;19.50;99.90
39095;DHT22;24840;47.508;19.376;2022-09-09T18:33:50;19.50;99.90
39095;DHT22;24840;47.508;19.376;2022-09-09T18:36:20;19.20;99.90
39095;DHT22;24840;47.508;19.376;2022-09-09T18:38:47;19.20;99.90
39095;DHT22;24840;47.508;19.376;2022-09-09T18:41:15;19.10;99.90
39095;DHT22;24840;47.508;19.376;2022-09-09T18:43:42;18.80;99.90
39095;DHT22;24840;47.508;19.376;2022-09-09T18:46:09;19.00;99.90
39095;DHT22;24840;47.508;19.376;2022-09-09T18:48:36;19.00;99.90
39095;DHT22;24840;47.508;19.376;2022-09-09T18:51:04;19.00;99.90
39095;DHT22;24840;47.508;19.376;2022-09-09T18:53:30;18.80;99.90
39095;DHT22;24840;47.508;19.376;2022-09-09T18:56:02;18.80;99.90
39095;DHT22;24840;47.508;19.376;2022-09-09T18:58:29;18.70;99.90
39095;DHT22;24840;47.508;19.376;2022-09-09T19:00:57;18.70;99.90
39095;DHT22;24840;47.508;19.376;2022-09-09T19:03:27;18.80;99.90
39095;DHT22;24840;47.508;19.376;2022-09-09T19:06:01;18.90;99.90
39095;DHT22;24840;47.508;19.376;2022-09-09T19:08:28;18.80;99.90
39095;DHT22;24840;47.508;19.376;2022-09-09T19:10:54;18.90;99.90
39095;DHT22;24840;47.508;19.376;2022-09-09T19:13:20;18.90;99.90
39095;DHT22;24840;47.508;19.376;2022-09-09T19:15:47;18.80;99.90
39095;DHT22;24840;47.508;19.376;2022-09-09T19:18:13;18.90;99.90
39095;DHT22;24840;47.508;19.376;2022-09-09T19:20:39;18.90;99.90
39095;DHT22;24840;47.508;19.376;2022-09-09T19:23:05;18.90;99.90
39095;DHT22;24840;47.508;19.376;2022-09-09T19:25:35;19.00;99.90
39095;DHT22;24840;47.508;19.376;2022-09-09T19:28:02;19.00;99.90
39095;DHT22;24840;47.508;19.376;2022-09-09T19:30:29;19.00;99.90
39095;DHT22;24840;47.508;19.376;2022-09-09T19:32:55;18.90;99.90
39095;DHT22;24840;47.508;19.376;2022-09-09T19:35:21;19.00;99.90
39095;DHT22;24840;47.508;19.376;2022-09-09T19:37:47;18.90;99.90
39095;DHT22;24840;47.508;19.376;2022-09-09T19:40:14;18.90;99.90
39095;DHT22;24840;47.508;19.376;2022-09-09T19:42:40;19.00;99.90
39095;DHT22;24840;47.508;19.376;2022-09-09T19:45:08;19.00;99.90
39095;DHT22;24840;47.508;19.376;2022-09-09T19:47:37;19.10;99.90
39095;DHT22;24840;47.508;19.376;2022-09-09T19:50:04;19.20;99.90
39095;DHT22;24840;47.508;19.376;2022-09-09T19:52:30;19.40;99.90
39095;DHT22;24840;47.508;19.376;2022-09-09T19:54:57;19.40;99.90
39095;DHT22;24840;47.508;19.376;2022-09-09T19:57:24;19.40;99.90
39095;DHT22;24840;47.508;19.376;2022-09-09T19:59:55;19.50;99.90
39095;DHT22;24840;47.508;19.376;2022-09-09T20:02:26;19.50;99.90
39095;DHT22;24840;47.508;19.376;2022-09-09T20:04:53;19.60;99.90
39095;DHT22;24840;47.508;19.376;2022-09-09T20:07:20;19.70;99.90
39095;DHT22;24840;47.508;19.376;2022-09-09T20:09:48;19.70;99.90
39095;DHT22;24840;47.508;19.376;2022-09-09T20:12:17;19.70;99.90
39095;DHT22;24840;47.508;19.376;2022-09-09T20:14:43;19.70;99.90
39095;DHT22;24840;47.508;19.376;2022-09-09T20:17:09;19.80;99.90
39095;DHT22;24840;47.508;19.376;2022-09-09T20:19:35;19.90;99.90
39095;DHT22;24840;47.508;19.376;2022-09-09T20:22:04;19.90;99.90
39095;DHT22;24840;47.508;19.376;2022-09-09T20:24:30;20.00;99.90
39095;DHT22;24840;47.508;19.376;2022-09-09T20:26:56;20.00;99.90
39095;DHT22;24840;47.508;19.376;2022-09-09T20:29:22;20.00;99.90
39095;DHT22;24840;47.508;19.376;2022-09-09T20:31:49;20.00;99.90
39095;DHT22;24840;47.508;19.376;2022-09-09T20:34:18;20.10;99.90
39095;DHT22;24840;47.508;19.376;2022-09-09T20:36:48;20.10;99.90
39095;DHT22;24840;47.508;19.376;2022-09-09T20:39:17;20.10;99.90
39095;DHT22;24840;47.508;19.376;2022-09-09T20:41:45;20.10;99.90
39095;DHT22;24840;47.508;19.376;2022-09-09T20:44:17;20.10;99.90
39095;DHT22;24840;47.508;19.376;2022-09-09T20:46:52;20.10;99.90
39095;DHT22;24840;47.508;19.376;2022-09-09T20:49:20;20.10;99.90
39095;DHT22;24840;47.508;19.376;2022-09-09T20:51:47;20.10;99.90
39095;DHT22;24840;47.508;19.376;2022-09-09T20:54:20;20.00;99.90
39095;DHT22;24840;47.508;19.376;2022-09-09T20:56:48;20.00;99.90
39095;DHT22;24840;47.508;19.376;2022-09-09T20:59:20;20.00;99.90
39095;DHT22;24840;47.508;19.376;2022-09-09T21:01:46;20.00;99.90
39095;DHT22;24840;47.508;19.376;2022-09-09T21:04:14;20.00;99.90
39095;DHT22;24840;47.508;19.376;2022-09-09T21:06:41;19.90;99.90
39095;DHT22;24840;47.508;19.376;2022-09-09T21:09:08;19.90;99.90
39095;DHT22;24840;47.508;19.376;2022-09-09T21:11:34;19.90;99.90
39095;DHT22;24840;47.508;19.376;2022-09-09T21:14:00;19.90;99.90
39095;DHT22;24840;47.508;19.376;2022-09-09T21:16:28;19.90;99.90
39095;DHT22;24840;47.508;19.376;2022-09-09T21:18:54;19.80;99.90
39095;DHT22;24840;47.508;19.376;2022-09-09T21:21:20;19.70;99.90
39095;DHT22;24840;47.508;19.376;2022-09-09T21:23:52;19.70;99.90
39095;DHT22;24840;47.508;19.376;2022-09-09T21:26:24;19.70;99.90
39095;DHT22;24840;47.508;19.376;2022-09-09T21:28:50;19.80;99.90
39095;DHT22;24840;47.508;19.376;2022-09-09T21:31:17;19.80;99.90
39095;DHT22;24840;47.508;19.376;2022-09-09T21:33:43;19.80;99.90
39095;DHT22;24840;47.508;19.376;2022-09-09T21:36:12;19.70;99.90